createdAt,value
2019-02-28T00:00:24.871Z,0.00
2019-02-28T00:01:24.828Z,0.00
2019-02-28T00:02:24.820Z,0.00
2019-02-28T00:03:26.106Z,0.00
2019-02-28T00:04:24.815Z,0.00
2019-02-28T00:05:24.811Z,0.00
2019-02-28T00:06:24.773Z,0.00
2019-02-28T00:07:24.764Z,0.00
2019-02-28T00:08:24.749Z,0.00
2019-02-28T00:09:25.646Z,0.00
2019-02-28T00:10:24.726Z,0.00
2019-02-28T00:11:24.732Z,0.00
2019-02-28T00:12:24.705Z,0.00
2019-02-28T00:13:24.696Z,0.00
2019-02-28T00:14:27.772Z,0.00
2019-02-28T00:15:24.676Z,0.00
2019-02-28T00:16:24.676Z,0.00
2019-02-28T00:17:24.649Z,0.00
2019-02-28T00:18:24.638Z,0.00
2019-02-28T00:19:24.627Z,0.00
2019-02-28T00:20:24.617Z,0.00
2019-02-28T00:21:24.632Z,0.00
2019-02-28T00:22:24.593Z,0.00
2019-02-28T00:23:24.581Z,0.00
2019-02-28T00:24:27.239Z,0.00
2019-02-28T00:25:25.564Z,0.00
2019-02-28T00:26:24.547Z,0.00
2019-02-28T00:27:24.555Z,0.00
2019-02-28T00:28:25.913Z,0.00
2019-02-28T00:29:24.513Z,0.00
2019-02-28T00:30:24.502Z,0.00
2019-02-28T00:31:24.490Z,0.00
2019-02-28T00:32:24.845Z,0.00
2019-02-28T00:33:24.468Z,0.00
2019-02-28T00:34:24.460Z,0.00
2019-02-28T00:35:24.446Z,0.00
2019-02-28T00:36:24.434Z,0.00
2019-02-28T00:37:25.564Z,0.00
2019-02-28T00:38:29.471Z,0.00
2019-02-28T00:39:25.417Z,0.00
2019-02-28T00:40:24.390Z,0.00
2019-02-28T00:41:24.378Z,0.00
2019-02-28T00:42:24.364Z,0.00
2019-02-28T00:43:25.159Z,0.00
2019-02-28T00:44:24.345Z,0.00
2019-02-28T00:45:24.332Z,0.00
2019-02-28T00:46:24.319Z,0.00
2019-02-28T00:47:24.316Z,0.00
2019-02-28T00:48:24.318Z,0.00
2019-02-28T00:49:25.075Z,0.00
2019-02-28T00:50:24.279Z,0.00
2019-02-28T00:51:24.263Z,0.00
2019-02-28T00:52:24.252Z,0.00
2019-02-28T00:53:24.270Z,0.00
2019-02-28T00:54:24.227Z,0.00
2019-02-28T00:55:24.222Z,0.00
2019-02-28T00:56:24.206Z,0.00
2019-02-28T00:57:24.682Z,0.00
2019-02-28T00:58:28.605Z,0.00
2019-02-28T00:59:25.187Z,0.00
2019-02-28T01:00:24.158Z,0.00
2019-02-28T01:01:24.148Z,0.00
2019-02-28T01:02:24.138Z,0.00
2019-02-28T01:03:27.446Z,0.00
2019-02-28T01:04:24.131Z,0.00
2019-02-28T01:05:24.106Z,0.00
2019-02-28T01:06:24.093Z,0.00
2019-02-28T01:07:24.079Z,0.00
2019-02-28T01:08:24.071Z,0.00
2019-02-28T01:09:24.084Z,0.00
2019-02-28T01:10:24.046Z,0.00
2019-02-28T01:11:24.033Z,0.00
2019-02-28T01:12:24.026Z,0.00
2019-02-28T01:13:27.253Z,0.00
2019-02-28T01:14:24.005Z,0.00
2019-02-28T01:15:24.008Z,0.00
2019-02-28T01:16:23.980Z,0.00
2019-02-28T01:17:26.500Z,0.00
2019-02-28T01:18:23.959Z,0.00
2019-02-28T01:19:23.944Z,0.00
2019-02-28T01:20:23.952Z,0.00
2019-02-28T01:21:24.582Z,0.00
2019-02-28T01:22:26.840Z,0.00
2019-02-28T01:23:23.897Z,0.00
2019-02-28T01:24:23.888Z,0.00
2019-02-28T01:25:23.904Z,0.00
2019-02-28T01:26:23.866Z,0.00
2019-02-28T01:27:23.852Z,0.00
2019-02-28T01:28:26.903Z,0.00
2019-02-28T01:29:23.830Z,0.00
2019-02-28T01:30:23.819Z,0.00
2019-02-28T01:31:23.824Z,0.00
2019-02-28T01:32:23.798Z,0.00
2019-02-28T01:33:24.999Z,0.00
2019-02-28T01:34:23.770Z,0.00
2019-02-28T01:35:23.765Z,0.00
2019-02-28T01:36:23.767Z,0.00
2019-02-28T01:37:23.737Z,0.00
2019-02-28T01:38:24.228Z,0.00
2019-02-28T01:39:23.715Z,0.00
2019-02-28T01:40:23.709Z,0.00
2019-02-28T01:41:23.720Z,0.00
2019-02-28T01:42:23.682Z,0.00
2019-02-28T01:43:28.360Z,0.00
2019-02-28T01:44:24.660Z,0.00
2019-02-28T01:45:23.645Z,0.00
2019-02-28T01:46:23.634Z,0.00
2019-02-28T01:47:23.638Z,0.00
2019-02-28T01:48:23.768Z,0.00
2019-02-28T01:49:26.028Z,0.00
2019-02-28T01:50:23.589Z,0.00
2019-02-28T01:51:23.577Z,0.00
2019-02-28T01:52:23.583Z,0.00
2019-02-28T01:53:23.555Z,0.00
2019-02-28T01:54:25.130Z,0.00
2019-02-28T01:55:23.531Z,0.00
2019-02-28T01:56:23.519Z,0.00
2019-02-28T01:57:23.537Z,0.00
2019-02-28T01:58:23.501Z,0.00
2019-02-28T01:59:26.150Z,0.00
2019-02-28T02:00:24.423Z,0.00
2019-02-28T02:01:23.465Z,0.00
2019-02-28T02:02:23.451Z,0.00
2019-02-28T02:03:23.456Z,0.00
2019-02-28T02:04:23.428Z,0.00
2019-02-28T02:05:23.416Z,0.00
2019-02-28T02:06:25.754Z,0.00
2019-02-28T02:07:23.393Z,0.00
2019-02-28T02:08:23.397Z,0.00
2019-02-28T02:09:23.370Z,0.00
2019-02-28T02:10:23.361Z,0.00
2019-02-28T02:11:23.346Z,0.00
2019-02-28T02:12:23.336Z,0.00
2019-02-28T02:13:23.359Z,0.00
2019-02-28T02:14:23.313Z,0.00
2019-02-28T02:15:23.300Z,0.00
2019-02-28T02:16:26.785Z,0.00
2019-02-28T02:17:23.284Z,0.00
2019-02-28T02:18:23.270Z,0.00
2019-02-28T02:19:23.274Z,0.00
2019-02-28T02:20:23.449Z,0.00
2019-02-28T02:21:23.652Z,0.00
2019-02-28T02:22:23.224Z,0.00
2019-02-28T02:23:23.211Z,0.00
2019-02-28T02:24:24.398Z,0.00
2019-02-28T02:25:23.187Z,0.00
2019-02-28T02:26:23.176Z,0.00
2019-02-28T02:27:23.164Z,0.00
2019-02-28T02:28:26.701Z,0.00
2019-02-28T02:29:23.170Z,0.00
2019-02-28T02:30:23.142Z,0.00
2019-02-28T02:31:27.252Z,0.00
2019-02-28T02:32:24.106Z,0.00
2019-02-28T02:33:23.100Z,0.00
2019-02-28T02:34:24.383Z,0.00
2019-02-28T02:35:23.092Z,0.00
2019-02-28T02:36:23.063Z,0.00
2019-02-28T02:37:26.389Z,0.00
2019-02-28T02:38:24.039Z,0.00
2019-02-28T02:39:23.659Z,0.00
2019-02-28T02:40:24.204Z,0.00
2019-02-28T02:41:23.005Z,0.00
2019-02-28T02:42:22.995Z,0.00
2019-02-28T02:43:23.150Z,0.00
2019-02-28T02:44:22.972Z,0.00
2019-02-28T02:45:22.979Z,0.00
2019-02-28T02:46:23.005Z,0.00
2019-02-28T02:47:22.937Z,0.00
2019-02-28T02:48:22.930Z,0.00
2019-02-28T02:49:22.913Z,0.00
2019-02-28T02:50:22.923Z,0.00
2019-02-28T02:51:22.890Z,0.00
2019-02-28T02:52:29.953Z,0.00
2019-02-28T02:53:23.871Z,0.00
2019-02-28T02:54:22.857Z,0.00
2019-02-28T02:55:27.708Z,0.00
2019-02-28T02:56:23.835Z,0.00
2019-02-28T02:57:23.662Z,0.00
2019-02-28T02:58:27.836Z,0.00
2019-02-28T02:59:22.798Z,0.00
2019-02-28T03:00:22.787Z,0.00
2019-02-28T03:01:23.442Z,0.00
2019-02-28T03:02:22.767Z,0.00
2019-02-28T03:03:22.754Z,0.00
2019-02-28T03:04:23.502Z,0.00
2019-02-28T03:05:22.730Z,0.00
2019-02-28T03:06:22.736Z,0.00
2019-02-28T03:07:24.562Z,0.00
2019-02-28T03:08:22.715Z,0.00
2019-02-28T03:09:22.689Z,0.00
2019-02-28T03:10:22.676Z,0.00
2019-02-28T03:11:24.747Z,0.00
2019-02-28T03:12:22.655Z,0.00
2019-02-28T03:13:22.648Z,0.00
2019-02-28T03:14:22.627Z,0.00
2019-02-28T03:15:26.951Z,0.00
2019-02-28T03:16:22.606Z,0.00
2019-02-28T03:17:22.615Z,0.00
2019-02-28T03:18:22.586Z,0.00
2019-02-28T03:19:23.165Z,0.00
2019-02-28T03:20:22.561Z,0.00
2019-02-28T03:21:22.549Z,0.00
2019-02-28T03:22:28.075Z,0.00
2019-02-28T03:23:23.526Z,0.00
2019-02-28T03:24:23.518Z,0.00
2019-02-28T03:25:28.263Z,0.00
2019-02-28T03:26:22.492Z,0.00
2019-02-28T03:27:22.509Z,0.00
2019-02-28T03:28:23.165Z,0.00
2019-02-28T03:29:22.466Z,0.00
2019-02-28T03:30:29.306Z,0.00
2019-02-28T03:31:23.446Z,0.00
2019-02-28T03:32:22.428Z,0.00
2019-02-28T03:33:27.223Z,0.00
2019-02-28T03:34:23.402Z,0.00
2019-02-28T03:35:22.392Z,0.00
2019-02-28T03:36:22.380Z,0.00
2019-02-28T03:37:22.367Z,0.00
2019-02-28T03:38:22.677Z,0.00
2019-02-28T03:39:24.599Z,0.00
2019-02-28T03:40:22.332Z,0.00
2019-02-28T03:41:22.327Z,0.00
2019-02-28T03:42:28.515Z,0.00
2019-02-28T03:43:23.332Z,0.00
2019-02-28T03:44:22.287Z,0.00
2019-02-28T03:45:22.282Z,0.00
2019-02-28T03:46:22.274Z,0.00
2019-02-28T03:47:23.852Z,0.00
2019-02-28T03:48:22.245Z,0.00
2019-02-28T03:49:23.166Z,0.00
2019-02-28T03:50:23.077Z,0.00
2019-02-28T03:51:22.215Z,0.00
2019-02-28T03:52:23.198Z,0.00
2019-02-28T03:53:22.188Z,0.00
2019-02-28T03:54:22.202Z,0.00
2019-02-28T03:55:22.161Z,0.00
2019-02-28T03:56:22.154Z,0.00
2019-02-28T03:57:28.004Z,0.00
2019-02-28T03:58:23.133Z,0.00
2019-02-28T03:59:22.157Z,0.00
2019-02-28T04:00:22.670Z,0.00
2019-02-28T04:01:22.090Z,0.00
2019-02-28T04:02:22.538Z,0.00
2019-02-28T04:03:22.123Z,0.00
2019-02-28T04:04:22.071Z,0.00
2019-02-28T04:05:28.092Z,0.00
2019-02-28T04:06:23.042Z,0.00
2019-02-28T04:07:23.692Z,0.00
2019-02-28T04:08:22.012Z,0.00
2019-02-28T04:09:22.002Z,0.00
2019-02-28T04:10:22.616Z,0.00
2019-02-28T04:11:21.980Z,0.00
2019-02-28T04:12:21.967Z,0.00
2019-02-28T04:13:21.958Z,0.00
2019-02-28T04:14:21.946Z,0.00
2019-02-28T04:15:21.935Z,0.00
2019-02-28T04:16:21.941Z,0.00
2019-02-28T04:17:21.914Z,0.00
2019-02-28T04:18:21.903Z,0.00
2019-02-28T04:19:22.980Z,0.00
2019-02-28T04:20:21.882Z,0.00
2019-02-28T04:21:21.899Z,0.00
2019-02-28T04:22:23.067Z,0.00
2019-02-28T04:23:21.844Z,0.00
2019-02-28T04:24:21.837Z,0.00
2019-02-28T04:25:24.198Z,0.00
2019-02-28T04:26:21.822Z,0.00
2019-02-28T04:27:21.814Z,0.00
2019-02-28T04:28:22.683Z,0.00
2019-02-28T04:29:21.776Z,0.00
2019-02-28T04:30:21.762Z,0.00
2019-02-28T04:31:22.675Z,0.00
2019-02-28T04:32:26.676Z,0.00
2019-02-28T04:33:22.729Z,0.00
2019-02-28T04:34:21.717Z,0.00
2019-02-28T04:35:25.297Z,0.00
2019-02-28T04:36:21.699Z,0.00
2019-02-28T04:37:21.721Z,0.00
2019-02-28T04:38:21.671Z,0.00
2019-02-28T04:39:22.768Z,0.00
2019-02-28T04:40:24.047Z,0.00
2019-02-28T04:41:22.677Z,0.00
2019-02-28T04:42:21.625Z,0.00
2019-02-28T04:43:22.181Z,0.00
2019-02-28T04:44:21.604Z,0.00
2019-02-28T04:45:23.287Z,0.00
2019-02-28T04:46:21.582Z,0.00
2019-02-28T04:47:21.569Z,0.00
2019-02-28T04:48:21.573Z,0.00
2019-02-28T04:49:22.751Z,0.00
2019-02-28T04:50:21.539Z,0.00
2019-02-28T04:51:21.523Z,0.00
2019-02-28T04:52:21.511Z,0.00
2019-02-28T04:53:21.530Z,0.00
2019-02-28T04:54:24.439Z,0.00
2019-02-28T04:55:22.482Z,0.00
2019-02-28T04:56:21.466Z,0.00
2019-02-28T04:57:21.628Z,0.00
2019-02-28T04:58:22.432Z,0.00
2019-02-28T04:59:21.450Z,0.00
2019-02-28T05:00:21.424Z,0.00
2019-02-28T05:01:21.412Z,0.00
2019-02-28T05:02:21.397Z,0.00
2019-02-28T05:03:21.394Z,0.00
2019-02-28T05:04:21.391Z,0.00
2019-02-28T05:05:21.365Z,0.00
2019-02-28T05:06:21.907Z,0.00
2019-02-28T05:07:21.341Z,0.00
2019-02-28T05:08:21.329Z,0.00
2019-02-28T05:09:21.347Z,0.00
2019-02-28T05:10:22.278Z,0.00
2019-02-28T05:11:21.296Z,0.00
2019-02-28T05:12:21.285Z,0.00
2019-02-28T05:13:21.282Z,0.00
2019-02-28T05:14:23.802Z,0.00
2019-02-28T05:15:21.265Z,0.00
2019-02-28T05:16:21.237Z,0.00
2019-02-28T05:17:22.269Z,0.00
2019-02-28T05:18:21.215Z,0.00
2019-02-28T05:19:21.206Z,0.00
2019-02-28T05:20:21.208Z,0.00
2019-02-28T05:21:21.180Z,0.00
2019-02-28T05:22:21.170Z,0.00
2019-02-28T05:23:21.162Z,0.00
2019-02-28T05:24:21.151Z,0.00
2019-02-28T05:25:21.153Z,0.00
2019-02-28T05:26:23.485Z,0.00
2019-02-28T05:27:24.320Z,0.00
2019-02-28T05:28:21.103Z,0.00
2019-02-28T05:29:21.088Z,0.00
2019-02-28T05:30:21.093Z,0.00
2019-02-28T05:31:21.071Z,4.00
2019-02-28T05:32:21.058Z,0.00
2019-02-28T05:33:21.041Z,0.00
2019-02-28T05:34:21.029Z,0.00
2019-02-28T05:35:25.556Z,4.00
2019-02-28T05:36:22.010Z,0.00
2019-02-28T05:37:20.997Z,4.00
2019-02-28T05:38:22.432Z,4.00
2019-02-28T05:39:20.978Z,4.00
2019-02-28T05:40:20.964Z,4.00
2019-02-28T05:41:20.966Z,4.00
2019-02-28T05:42:23.414Z,8.00
2019-02-28T05:43:20.930Z,8.00
2019-02-28T05:44:21.405Z,12.00
2019-02-28T05:45:20.916Z,12.00
2019-02-28T05:46:23.811Z,12.00
2019-02-28T05:47:20.884Z,20.00
2019-02-28T05:48:20.871Z,20.00
2019-02-28T05:49:20.861Z,20.00
2019-02-28T05:50:20.851Z,24.00
2019-02-28T05:51:20.872Z,28.00
2019-02-28T05:52:20.824Z,32.00
2019-02-28T05:53:20.813Z,32.00
2019-02-28T05:54:20.803Z,36.00
2019-02-28T05:55:24.468Z,40.00
2019-02-28T05:56:20.779Z,44.00
2019-02-28T05:57:20.785Z,48.00
2019-02-28T05:58:20.958Z,52.00
2019-02-28T05:59:25.989Z,56.00
2019-02-28T06:00:21.731Z,64.00
2019-02-28T06:01:20.726Z,68.00
2019-02-28T06:02:22.342Z,76.00
2019-02-28T06:03:20.700Z,80.00
2019-02-28T06:04:20.706Z,84.00
2019-02-28T06:05:20.675Z,96.00
2019-02-28T06:06:20.971Z,100.00
2019-02-28T06:07:20.669Z,108.00
2019-02-28T06:08:20.641Z,116.00
2019-02-28T06:09:20.629Z,124.00
2019-02-28T06:10:24.634Z,132.00
2019-02-28T06:11:20.607Z,144.00
2019-02-28T06:12:20.623Z,152.00
2019-02-28T06:13:20.589Z,164.00
2019-02-28T06:14:20.573Z,176.00
2019-02-28T06:15:20.564Z,184.00
2019-02-28T06:16:20.564Z,192.00
2019-02-28T06:17:21.660Z,204.00
2019-02-28T06:18:20.527Z,220.00
2019-02-28T06:19:20.515Z,228.00
2019-02-28T06:20:20.508Z,240.00
2019-02-28T06:21:23.456Z,252.00
2019-02-28T06:22:20.483Z,264.00
2019-02-28T06:23:20.503Z,280.00
2019-02-28T06:24:20.461Z,292.00
2019-02-28T06:25:24.113Z,300.00
2019-02-28T06:26:21.435Z,316.00
2019-02-28T06:27:20.432Z,332.00
2019-02-28T06:28:20.416Z,340.00
2019-02-28T06:29:20.416Z,360.00
2019-02-28T06:30:20.389Z,372.00
2019-02-28T06:31:20.380Z,388.00
2019-02-28T06:32:23.592Z,404.00
2019-02-28T06:33:21.249Z,416.00
2019-02-28T06:34:20.413Z,432.00
2019-02-28T06:35:20.618Z,448.00
2019-02-28T06:36:20.328Z,468.00
2019-02-28T06:37:20.313Z,484.00
2019-02-28T06:38:20.303Z,500.00
2019-02-28T06:39:20.318Z,520.00
2019-02-28T06:40:20.276Z,540.00
2019-02-28T06:41:20.267Z,564.00
2019-02-28T06:42:20.251Z,588.00
2019-02-28T06:43:20.240Z,608.00
2019-02-28T06:44:20.228Z,628.00
2019-02-28T06:45:20.235Z,652.00
2019-02-28T06:46:20.206Z,680.00
2019-02-28T06:47:20.200Z,704.00
2019-02-28T06:48:20.833Z,732.00
2019-02-28T06:49:20.173Z,768.00
2019-02-28T06:50:20.186Z,800.00
2019-02-28T06:51:20.148Z,828.00
2019-02-28T06:52:22.276Z,856.00
2019-02-28T06:53:20.127Z,896.00
2019-02-28T06:54:20.115Z,940.00
2019-02-28T06:55:20.119Z,976.00
2019-02-28T06:56:22.664Z,1012.00
2019-02-28T06:57:20.081Z,1048.00
2019-02-28T06:58:20.069Z,1088.00
2019-02-28T06:59:20.058Z,1140.00
2019-02-28T07:00:20.064Z,1188.00
2019-02-28T07:01:22.654Z,1224.00
2019-02-28T07:02:20.027Z,1280.00
2019-02-28T07:03:20.013Z,1312.00
2019-02-28T07:04:20.005Z,1340.00
2019-02-28T07:05:24.823Z,1376.00
2019-02-28T07:06:20.981Z,1408.00
2019-02-28T07:07:20.712Z,1448.00
2019-02-28T07:08:20.737Z,1528.00
2019-02-28T07:09:19.946Z,1636.00
2019-02-28T07:10:19.984Z,1796.00
2019-02-28T07:11:20.739Z,2016.00
2019-02-28T07:12:19.912Z,2276.00
2019-02-28T07:13:19.904Z,2636.00
2019-02-28T07:14:19.938Z,3024.00
2019-02-28T07:15:23.608Z,3400.00
2019-02-28T07:16:19.889Z,3568.00
2019-02-28T07:17:19.855Z,3624.00
2019-02-28T07:18:20.028Z,3696.00
2019-02-28T07:19:19.831Z,3824.00
2019-02-28T07:20:19.819Z,3876.00
2019-02-28T07:21:19.809Z,4068.00
2019-02-28T07:22:20.699Z,4152.00
2019-02-28T07:23:19.785Z,4232.00
2019-02-28T07:24:19.775Z,4332.00
2019-02-28T07:25:19.763Z,4380.00
2019-02-28T07:26:19.757Z,4524.00
2019-02-28T07:27:19.767Z,4620.00
2019-02-28T07:28:19.735Z,4672.00
2019-02-28T07:29:19.716Z,4792.00
2019-02-28T07:30:19.780Z,4856.00
2019-02-28T07:31:21.732Z,4936.00
2019-02-28T07:32:19.681Z,5096.00
2019-02-28T07:33:19.687Z,5128.00
2019-02-28T07:34:22.057Z,5300.00
2019-02-28T07:35:19.656Z,5344.00
2019-02-28T07:36:19.642Z,5480.00
2019-02-28T07:37:19.716Z,5608.00
2019-02-28T07:38:19.641Z,5676.00
2019-02-28T07:39:19.603Z,5776.00
2019-02-28T07:40:19.605Z,5936.00
2019-02-28T07:41:20.317Z,6028.00
2019-02-28T07:42:19.577Z,6104.00
2019-02-28T07:43:19.586Z,6144.00
2019-02-28T07:44:22.190Z,6252.00
2019-02-28T07:45:19.541Z,6352.00
2019-02-28T07:46:19.522Z,6356.00
2019-02-28T07:47:19.513Z,6396.00
2019-02-28T07:48:19.502Z,6544.00
2019-02-28T07:49:19.512Z,6552.00
2019-02-28T07:50:19.483Z,6580.00
2019-02-28T07:51:22.659Z,6776.00
2019-02-28T07:52:20.524Z,6792.00
2019-02-28T07:53:19.448Z,6792.00
2019-02-28T07:54:20.502Z,6728.00
2019-02-28T07:55:19.427Z,6760.00
2019-02-28T07:56:19.412Z,7088.00
2019-02-28T07:57:19.401Z,7076.00
2019-02-28T07:58:19.389Z,7020.00
2019-02-28T07:59:20.298Z,7216.00
2019-02-28T08:00:19.729Z,7240.00
2019-02-28T08:01:19.354Z,7240.00
2019-02-28T08:02:19.342Z,7188.00
2019-02-28T08:03:19.331Z,7196.00
2019-02-28T08:04:19.466Z,7296.00
2019-02-28T08:05:19.322Z,7304.00
2019-02-28T08:06:19.298Z,7456.00
2019-02-28T08:07:19.286Z,7284.00
2019-02-28T08:08:19.277Z,7452.00
2019-02-28T08:09:19.263Z,7772.00
2019-02-28T08:10:19.268Z,7776.00
2019-02-28T08:11:19.996Z,7820.00
2019-02-28T08:12:19.230Z,7920.00
2019-02-28T08:13:19.219Z,7952.00
2019-02-28T08:14:19.207Z,8012.00
2019-02-28T08:15:22.444Z,8096.00
2019-02-28T08:16:19.187Z,8164.00
2019-02-28T08:17:19.173Z,8204.00
2019-02-28T08:18:19.657Z,8304.00
2019-02-28T08:19:19.161Z,8292.00
2019-02-28T08:20:19.169Z,8360.00
2019-02-28T08:21:19.127Z,8444.00
2019-02-28T08:22:23.303Z,8416.00
2019-02-28T08:23:20.103Z,8516.00
2019-02-28T08:24:19.094Z,8540.00
2019-02-28T08:25:19.087Z,8548.00
2019-02-28T08:26:19.791Z,8588.00
2019-02-28T08:27:19.062Z,8640.00
2019-02-28T08:28:19.052Z,8724.00
2019-02-28T08:29:19.037Z,8712.00
2019-02-28T08:30:19.599Z,8420.00
2019-02-28T08:31:19.047Z,8828.00
2019-02-28T08:32:19.004Z,8868.00
2019-02-28T08:33:18.990Z,8924.00
2019-02-28T08:34:20.703Z,8720.00
2019-02-28T08:35:18.976Z,8872.00
2019-02-28T08:36:18.958Z,8856.00
2019-02-28T08:37:19.999Z,9048.00
2019-02-28T08:38:18.932Z,8888.00
2019-02-28T08:39:18.928Z,9108.00
2019-02-28T08:40:18.919Z,9056.00
2019-02-28T08:41:18.922Z,9208.00
2019-02-28T08:42:18.906Z,9176.00
2019-02-28T08:43:26.824Z,9200.00
2019-02-28T08:44:23.773Z,9260.00
2019-02-28T08:45:18.856Z,9368.00
2019-02-28T08:46:18.846Z,9420.00
2019-02-28T08:47:21.135Z,9384.00
2019-02-28T08:48:18.833Z,9136.00
2019-02-28T08:49:18.806Z,9112.00
2019-02-28T08:50:20.577Z,9160.00
2019-02-28T08:51:18.783Z,8960.00
2019-02-28T08:52:18.772Z,9184.00
2019-02-28T08:53:19.690Z,9096.00
2019-02-28T08:54:26.140Z,9260.00
2019-02-28T08:55:28.131Z,9104.00
2019-02-28T08:56:21.255Z,9096.00
2019-02-28T08:57:18.715Z,9172.00
2019-02-28T08:58:18.708Z,9168.00
2019-02-28T08:59:22.348Z,9144.00
2019-02-28T09:00:18.681Z,9112.00
2019-02-28T09:01:18.672Z,9208.00
2019-02-28T09:02:19.049Z,9256.00
2019-02-28T09:03:18.647Z,9304.00
2019-02-28T09:04:18.663Z,9352.00
2019-02-28T09:05:18.624Z,9288.00
2019-02-28T09:06:18.616Z,9224.00
2019-02-28T09:07:18.607Z,9248.00
2019-02-28T09:08:18.598Z,9108.00
2019-02-28T09:09:18.579Z,9216.00
2019-02-28T09:10:18.589Z,9424.00
2019-02-28T09:11:20.969Z,9268.00
2019-02-28T09:12:18.545Z,9432.00
2019-02-28T09:13:18.551Z,9420.00
2019-02-28T09:14:18.709Z,9288.00
2019-02-28T09:15:18.542Z,9380.00
2019-02-28T09:16:18.499Z,9268.00
2019-02-28T09:17:19.329Z,9340.00
2019-02-28T09:18:18.476Z,9460.00
2019-02-28T09:19:18.465Z,9060.00
2019-02-28T09:20:18.456Z,9144.00
2019-02-28T09:21:19.116Z,9244.00
2019-02-28T09:22:18.433Z,9236.00
2019-02-28T09:23:18.427Z,9148.00
2019-02-28T09:24:18.411Z,9472.00
2019-02-28T09:25:21.152Z,9620.00
2019-02-28T09:26:18.418Z,9508.00
2019-02-28T09:27:18.377Z,9540.00
2019-02-28T09:28:18.364Z,9696.00
2019-02-28T09:29:20.974Z,9472.00
2019-02-28T09:30:18.342Z,9672.00
2019-02-28T09:31:18.333Z,9532.00
2019-02-28T09:32:18.335Z,9516.00
2019-02-28T09:33:19.265Z,9684.00
2019-02-28T09:34:18.297Z,9512.00
2019-02-28T09:35:18.287Z,9632.00
2019-02-28T09:36:20.692Z,9576.00
2019-02-28T09:37:18.279Z,9664.00
2019-02-28T09:38:18.250Z,9520.00
2019-02-28T09:39:19.445Z,9616.00
2019-02-28T09:40:18.229Z,9652.00
2019-02-28T09:41:19.088Z,9404.00
2019-02-28T09:42:18.206Z,9428.00
2019-02-28T09:43:18.218Z,9420.00
2019-02-28T09:44:18.184Z,9496.00
2019-02-28T09:45:18.186Z,9388.00
2019-02-28T09:46:18.787Z,9424.00
2019-02-28T09:47:18.149Z,9488.00
2019-02-28T09:48:18.155Z,9536.00
2019-02-28T09:49:18.127Z,9492.00
2019-02-28T09:50:19.427Z,9572.00
2019-02-28T09:51:18.105Z,9576.00
2019-02-28T09:52:18.093Z,9660.00
2019-02-28T09:53:18.100Z,9436.00
2019-02-28T09:54:18.073Z,9676.00
2019-02-28T09:55:18.060Z,9588.00
2019-02-28T09:56:19.432Z,9824.00
2019-02-28T09:57:18.943Z,9660.00
2019-02-28T09:58:18.054Z,9420.00
2019-02-28T09:59:18.016Z,9868.00
2019-02-28T10:00:18.003Z,9764.00
2019-02-28T10:01:17.992Z,9940.00
2019-02-28T10:02:17.984Z,9972.00
2019-02-28T10:03:18.607Z,9740.00
2019-02-28T10:04:17.988Z,9976.00
2019-02-28T10:05:17.956Z,9880.00
2019-02-28T10:06:17.937Z,10104.00
2019-02-28T10:07:17.927Z,10072.00
2019-02-28T10:08:17.915Z,10060.00
2019-02-28T10:09:17.902Z,10040.00
2019-02-28T10:10:21.074Z,10128.00
2019-02-28T10:11:17.881Z,10200.00
2019-02-28T10:12:17.868Z,10304.00
2019-02-28T10:13:18.513Z,10356.00
2019-02-28T10:14:17.847Z,10344.00
2019-02-28T10:15:17.852Z,10328.00
2019-02-28T10:16:17.823Z,10492.00
2019-02-28T10:17:17.813Z,10344.00
2019-02-28T10:18:17.801Z,10464.00
2019-02-28T10:19:17.789Z,10608.00
2019-02-28T10:20:17.810Z,10000.00
2019-02-28T10:21:17.768Z,10048.00
2019-02-28T10:22:17.757Z,10752.00
2019-02-28T10:23:18.474Z,9500.00
2019-02-28T10:24:17.758Z,10752.00
2019-02-28T10:25:17.723Z,9276.00
2019-02-28T10:26:17.908Z,10080.00
2019-02-28T10:27:17.742Z,10008.00
2019-02-28T10:28:17.692Z,9512.00
2019-02-28T10:29:17.685Z,10172.00
2019-02-28T10:30:17.668Z,10700.00
2019-02-28T10:31:17.686Z,10900.00
2019-02-28T10:32:17.643Z,11352.00
2019-02-28T10:33:18.093Z,11000.00
2019-02-28T10:34:17.623Z,9852.00
2019-02-28T10:35:18.510Z,12184.00
2019-02-28T10:36:17.630Z,17952.00
2019-02-28T10:37:19.319Z,21504.00
2019-02-28T10:38:17.575Z,24192.00
2019-02-28T10:39:17.567Z,27168.00
2019-02-28T10:40:18.502Z,24416.00
2019-02-28T10:41:18.259Z,27168.00
2019-02-28T10:42:17.565Z,20416.00
2019-02-28T10:43:17.528Z,30944.00
2019-02-28T10:44:17.513Z,24160.00
2019-02-28T10:45:17.500Z,23328.00
2019-02-28T10:46:20.118Z,21536.00
2019-02-28T10:47:17.483Z,19520.00
2019-02-28T10:48:17.491Z,16800.00
2019-02-28T10:49:17.463Z,16928.00
2019-02-28T10:50:17.446Z,15584.00
2019-02-28T10:51:17.436Z,19904.00
2019-02-28T10:52:17.427Z,16096.00
2019-02-28T10:53:17.434Z,19232.00
2019-02-28T10:54:17.404Z,23552.00
2019-02-28T10:55:19.377Z,24064.00
2019-02-28T10:56:17.384Z,18880.00
2019-02-28T10:57:17.370Z,24160.00
2019-02-28T10:58:17.371Z,24320.00
2019-02-28T10:59:17.348Z,26176.00
2019-02-28T11:00:17.342Z,30528.00
2019-02-28T11:01:17.326Z,32960.00
2019-02-28T11:02:19.795Z,29216.00
2019-02-28T11:03:17.332Z,28352.00
2019-02-28T11:04:17.290Z,34176.00
2019-02-28T11:05:18.754Z,35392.00
2019-02-28T11:06:17.284Z,34336.00
2019-02-28T11:07:17.259Z,38496.00
2019-02-28T11:08:19.175Z,37952.00
2019-02-28T11:09:18.295Z,36416.00
2019-02-28T11:10:17.226Z,32256.00
2019-02-28T11:11:17.216Z,31616.00
2019-02-28T11:12:20.322Z,33088.00
2019-02-28T11:13:18.190Z,33120.00
2019-02-28T11:14:17.211Z,17600.00
2019-02-28T11:15:17.170Z,5472.00
2019-02-28T11:16:17.157Z,5004.00
2019-02-28T11:17:17.145Z,4876.00
2019-02-28T11:18:17.136Z,4744.00
2019-02-28T11:19:19.450Z,4452.00
2019-02-28T11:20:22.224Z,4308.00
2019-02-28T11:21:18.103Z,4284.00
2019-02-28T11:22:17.095Z,4076.00
2019-02-28T11:23:17.090Z,4000.00
2019-02-28T11:24:17.068Z,3968.00
2019-02-28T11:25:17.077Z,4000.00
2019-02-28T11:26:17.045Z,3888.00
2019-02-28T11:27:19.719Z,3756.00
2019-02-28T11:28:18.030Z,3720.00
2019-02-28T11:29:17.013Z,3684.00
2019-02-28T11:30:17.031Z,3660.00
2019-02-28T11:31:19.169Z,3628.00
2019-02-28T11:32:16.984Z,3644.00
2019-02-28T11:33:16.970Z,3660.00
2019-02-28T11:34:18.787Z,3644.00
2019-02-28T11:35:16.948Z,3620.00
2019-02-28T11:36:16.957Z,3540.00
2019-02-28T11:37:23.783Z,3532.00
2019-02-28T11:38:20.341Z,3544.00
2019-02-28T11:39:16.898Z,3548.00
2019-02-28T11:40:16.888Z,3556.00
2019-02-28T11:41:18.573Z,3488.00
2019-02-28T11:42:16.864Z,3340.00
2019-02-28T11:43:16.854Z,3240.00
2019-02-28T11:44:16.845Z,3140.00
2019-02-28T11:45:18.538Z,3080.00
2019-02-28T11:46:16.851Z,3132.00
2019-02-28T11:47:16.809Z,3152.00
2019-02-28T11:48:20.120Z,3260.00
2019-02-28T11:49:16.787Z,3388.00
2019-02-28T11:50:16.776Z,3432.00
2019-02-28T11:51:17.819Z,3532.00
2019-02-28T11:52:16.788Z,3404.00
2019-02-28T11:53:16.747Z,3352.00
2019-02-28T11:54:16.730Z,3468.00
2019-02-28T11:55:20.167Z,3388.00
2019-02-28T11:56:16.709Z,3236.00
2019-02-28T11:57:16.696Z,3316.00
2019-02-28T11:58:17.946Z,3180.00
2019-02-28T11:59:16.677Z,3384.00
2019-02-28T12:00:16.664Z,3592.00
2019-02-28T12:01:16.677Z,3504.00
2019-02-28T12:02:20.230Z,3424.00
2019-02-28T12:03:16.647Z,3180.00
2019-02-28T12:04:16.622Z,2916.00
2019-02-28T12:05:16.614Z,3128.00
2019-02-28T12:06:16.596Z,3060.00
2019-02-28T12:07:16.585Z,3116.00
2019-02-28T12:08:16.600Z,3260.00
2019-02-28T12:09:19.274Z,3432.00
2019-02-28T12:10:16.550Z,3492.00
2019-02-28T12:11:16.539Z,3596.00
2019-02-28T12:12:16.528Z,3472.00
2019-02-28T12:13:19.605Z,3436.00
2019-02-28T12:14:16.537Z,3500.00
2019-02-28T12:15:16.494Z,3616.00
2019-02-28T12:16:19.133Z,3360.00
2019-02-28T12:17:16.471Z,3140.00
2019-02-28T12:18:16.461Z,3032.00
2019-02-28T12:19:16.819Z,3072.00
2019-02-28T12:20:16.466Z,3284.00
2019-02-28T12:21:16.425Z,3352.00
2019-02-28T12:22:16.414Z,3176.00
2019-02-28T12:23:16.402Z,3228.00
2019-02-28T12:24:16.392Z,3288.00
2019-02-28T12:25:16.387Z,3204.00
2019-02-28T12:26:17.722Z,3040.00
2019-02-28T12:27:16.358Z,2844.00
2019-02-28T12:28:16.348Z,2724.00
2019-02-28T12:29:18.214Z,2660.00
2019-02-28T12:30:16.323Z,2752.00
2019-02-28T12:31:16.331Z,2932.00
2019-02-28T12:32:16.301Z,3228.00
2019-02-28T12:33:18.985Z,3284.00
2019-02-28T12:34:17.276Z,3256.00
2019-02-28T12:35:16.266Z,3144.00
2019-02-28T12:36:16.272Z,3108.00
2019-02-28T12:37:16.245Z,3072.00